Time;durP1;ratioP1;P1;durP2;ratioP2;P2;SDS_P1;SDS_P2;PMS_P1;PMS_P2;Temp;Humidity;BMP_temperature;BMP_pressure;BME280_temperature;BME280_humidity;BME280_pressure;Samples;Min_cycle;Max_cycle;Signal;HPM_P1;HPM_P2
2021/08/18 00:00:44;;;;;;;;;5.00;5.00;;;;;20.42;56.51;101433.28;5057738;28;48099;-54
2021/08/18 00:03:11;;;;;;;;;5.67;4.33;;;;;20.42;56.49;101437.81;5058427;28;45429;-53
2021/08/18 00:05:38;;;;;;;;;3.00;3.00;;;;;20.42;56.41;101435.13;5061077;27;45364;-54
2021/08/18 00:08:05;;;;;;;;;5.33;4.00;;;;;20.41;56.46;101436.03;5060983;28;45531;-53
2021/08/18 00:10:31;;;;;;;;;6.00;6.00;;;;;20.40;55.98;101435.16;5061089;28;46995;-54
2021/08/18 00:12:57;;;;;;;;;5.00;4.00;;;;;20.40;56.52;101427.09;5057574;28;45747;-53
2021/08/18 00:15:24;;;;;;;;;5.00;3.00;;;;;20.39;56.06;101435.25;5059831;28;45590;-55
2021/08/18 00:17:50;;;;;;;;;4.33;4.33;;;;;20.37;56.08;101438.03;5053500;28;45532;-49
2021/08/18 00:20:16;;;;;;;;;4.67;4.67;;;;;20.37;56.52;101426.38;5060528;28;46276;-53
2021/08/18 00:22:41;;;;;;;;;4.33;3.67;;;;;20.34;56.40;101429.22;5058874;28;46081;-54
2021/08/18 00:25:08;;;;;;;;;4.67;4.67;;;;;20.33;56.53;101435.53;5060405;28;45315;-54
2021/08/18 00:27:33;;;;;;;;;4.67;4.67;;;;;20.33;56.51;101427.47;5060483;28;45508;-52
2021/08/18 00:29:59;;;;;;;;;5.33;4.67;;;;;20.31;56.64;101427.53;5056795;28;48272;-54
2021/08/18 00:32:25;;;;;;;;;4.33;4.00;;;;;20.31;56.62;101416.75;5059723;28;45703;-55
2021/08/18 00:34:50;;;;;;;;;6.00;5.00;;;;;20.30;56.65;101423.09;5060326;28;45488;-52
2021/08/18 00:37:16;;;;;;;;;3.33;3.33;;;;;20.30;56.42;101417.72;5060996;28;45337;-52
2021/08/18 00:39:42;;;;;;;;;4.00;4.00;;;;;20.31;56.38;101423.97;5057712;28;47128;-55
2021/08/18 00:42:07;;;;;;;;;4.33;4.33;;;;;20.31;56.51;101413.19;5060540;28;45401;-55
2021/08/18 00:44:35;;;;;;;;;3.00;3.00;;;;;20.29;56.54;101415.97;5059981;28;45527;-53
2021/08/18 00:47:01;;;;;;;;;6.33;5.00;;;;;20.27;56.31;101418.75;5060502;28;45350;-55
2021/08/18 00:49:27;;;;;;;;;3.00;3.00;;;;;20.27;56.92;101415.19;5049152;28;48023;-54
2021/08/18 00:51:55;;;;;;;;;4.00;4.00;;;;;20.28;56.95;101411.53;5060442;28;45354;-53
2021/08/18 00:54:22;;;;;;;;;4.00;4.00;;;;;20.28;56.46;101411.53;5060093;28;45656;-53
2021/08/18 00:56:48;;;;;;;;;4.67;4.67;;;;;20.28;56.82;101414.22;5060232;28;45456;-54
2021/08/18 00:59:14;;;;;;;;;3.00;3.00;;;;;20.29;56.42;101413.28;5057253;28;48070;-52
2021/08/18 01:01:40;;;;;;;;;4.00;4.00;;;;;20.27;56.81;101418.75;5055736;28;47082;-53
2021/08/18 01:04:06;;;;;;;;;4.33;2.67;;;;;20.26;56.80;101416.13;5076057;27;45445;-54
2021/08/18 01:06:40;;;;;;;;;6.33;6.00;;;;;20.24;56.88;101418.91;5056548;28;45686;-54
2021/08/18 01:09:14;;;;;;;;;6.33;5.67;;;;;20.25;56.49;101422.47;5059731;28;47382;-53
2021/08/18 01:11:42;;;;;;;;;5.00;5.00;;;;;20.24;56.57;101418.03;5047737;28;46020;-53
2021/08/18 01:14:09;;;;;;;;;4.00;4.00;;;;;20.23;56.63;101419.00;5059855;28;45432;-54
2021/08/18 01:16:37;;;;;;;;;3.00;3.00;;;;;20.24;56.60;101416.22;5042097;28;46441;-54
2021/08/18 01:19:03;;;;;;;;;5.00;5.00;;;;;20.24;57.04;101409.94;5059624;28;48023;-56
2021/08/18 01:21:30;;;;;;;;;6.00;6.00;;;;;20.24;56.46;101402.75;5059920;28;46064;-54
2021/08/18 01:23:56;;;;;;;;;3.00;3.00;;;;;20.25;56.62;101409.88;5055690;28;45288;-53
2021/08/18 01:26:21;;;;;;;;;5.00;5.00;;;;;20.26;56.58;101405.34;5060073;28;45262;-53
2021/08/18 01:28:47;;;;;;;;;3.00;3.00;;;;;20.25;56.46;101407.19;5059443;28;47514;-54
2021/08/18 01:31:13;;;;;;;;;1.67;1.00;;;;;20.24;56.97;101407.25;5053929;28;45411;-51
2021/08/18 01:33:39;;;;;;;;;5.67;5.67;;;;;20.25;56.91;101409.00;5054834;28;45347;-52
2021/08/18 01:36:04;;;;;;;;;3.00;3.00;;;;;20.23;56.58;101413.59;5060018;28;45554;-51
2021/08/18 01:38:30;;;;;;;;;3.00;3.00;;;;;20.22;57.00;101399.25;5056761;28;48081;-53
2021/08/18 01:40:55;;;;;;;;;3.00;2.00;;;;;20.21;56.54;101404.72;5059399;28;45477;-51
2021/08/18 01:43:22;;;;;;;;;3.67;3.00;;;;;20.21;56.54;101402.03;5059559;28;45433;-49
2021/08/18 01:45:49;;;;;;;;;3.33;3.33;;;;;20.20;56.93;101395.78;5058060;28;45431;-53
2021/08/18 01:48:18;;;;;;;;;5.00;5.00;;;;;20.17;56.83;101393.22;5057924;28;47196;-54
2021/08/18 01:50:48;;;;;;;;;3.00;3.00;;;;;20.17;56.98;101398.59;5059135;28;46186;-53
2021/08/18 01:53:16;;;;;;;;;4.00;4.00;;;;;20.18;56.75;101403.03;5059203;28;45326;-51
2021/08/18 01:55:42;;;;;;;;;4.00;4.00;;;;;20.20;56.73;101400.25;5059690;28;46105;-49
2021/08/18 01:58:07;;;;;;;;;6.67;4.67;;;;;20.20;57.07;101398.47;5059399;28;48074;-52
2021/08/18 02:00:34;;;;;;;;;6.00;4.00;;;;;20.20;56.87;101393.06;5054864;28;45472;-53
2021/08/18 02:02:59;;;;;;;;;3.33;3.33;;;;;20.21;56.58;101397.50;5058924;28;45506;-53
2021/08/18 02:05:27;;;;;;;;;3.00;3.00;;;;;20.22;57.04;101393.88;5058425;28;45488;-53
2021/08/18 02:07:54;;;;;;;;;4.33;2.67;;;;;20.22;56.79;101395.69;5057557;28;48693;-54
2021/08/18 02:10:20;;;;;;;;;3.00;2.00;;;;;20.22;56.64;101393.00;5059102;28;45271;-52
2021/08/18 02:12:46;;;;;;;;;2.33;2.33;;;;;20.22;56.94;101398.38;5058554;28;45570;-52
2021/08/18 02:15:18;;;;;;;;;4.67;3.00;;;;;20.22;56.58;101395.69;5054326;28;45445;-53
2021/08/18 02:17:44;;;;;;;;;5.33;4.00;;;;;20.21;56.78;101394.81;5051467;28;47311;-52
2021/08/18 02:20:14;;;;;;;;;5.00;3.00;;;;;20.22;57.28;101390.31;5050374;28;45463;-52
2021/08/18 02:22:40;;;;;;;;;3.00;3.00;;;;;20.20;56.79;101386.78;5058423;28;45453;-53
2021/08/18 02:25:07;;;;;;;;;5.33;4.67;;;;;20.19;57.21;101388.59;5057895;28;45438;-52
2021/08/18 02:27:32;;;;;;;;;3.00;2.00;;;;;20.19;56.73;101385.91;5059174;28;47332;-54
2021/08/18 02:29:58;;;;;;;;;5.00;4.00;;;;;20.18;56.75;101386.88;5090845;27;45312;-52
2021/08/18 02:32:23;;;;;;;;;3.67;3.33;;;;;20.17;56.76;101385.13;5050399;28;45326;-51
2021/08/18 02:34:49;;;;;;;;;3.33;2.33;;;;;20.18;56.94;101377.91;5058983;28;45457;-53
2021/08/18 02:37:14;;;;;;;;;4.00;4.00;;;;;20.18;57.09;101375.22;5052376;28;47811;-54
2021/08/18 02:39:40;;;;;;;;;3.00;3.00;;;;;20.18;56.94;101380.59;5058603;28;45330;-53
2021/08/18 02:42:06;;;;;;;;;5.67;5.67;;;;;20.17;57.08;101373.47;5059487;28;45397;-53
2021/08/18 02:44:32;;;;;;;;;4.00;4.00;;;;;20.14;57.17;101377.19;5059299;28;45573;-53
2021/08/18 02:46:57;;;;;;;;;3.67;3.67;;;;;20.13;56.90;101380.84;5057900;27;46023;-52
2021/08/18 02:49:23;;;;;;;;;4.00;3.33;;;;;20.13;57.00;101377.28;5058949;28;45495;-52
2021/08/18 02:51:48;;;;;;;;;2.00;2.00;;;;;20.13;57.59;101372.75;5059344;28;45352;-53
2021/08/18 02:54:14;;;;;;;;;3.00;2.67;;;;;20.14;57.41;101376.34;5064337;28;45736;-51
2021/08/18 02:56:39;;;;;;;;;4.00;4.00;;;;;20.13;57.35;101378.16;5064288;28;47004;-51
2021/08/18 02:59:05;;;;;;;;;1.67;1.67;;;;;20.13;57.78;101377.28;5057746;28;45423;-52
2021/08/18 03:01:31;;;;;;;;;3.00;3.00;;;;;20.12;57.85;101379.09;5051245;28;45535;-51
2021/08/18 03:03:56;;;;;;;;;4.33;3.33;;;;;20.12;57.38;101372.84;5058835;28;45353;-52
2021/08/18 03:06:22;;;;;;;;;2.00;2.00;;;;;20.12;57.63;101372.84;5058483;28;48023;-53
2021/08/18 03:08:47;;;;;;;;;4.00;2.00;;;;;20.13;57.87;101374.59;5056461;28;45272;-52
2021/08/18 03:11:13;;;;;;;;;3.33;3.33;;;;;20.13;57.71;101371.91;5057236;28;45428;-52
2021/08/18 03:13:38;;;;;;;;;3.00;2.00;;;;;20.13;57.51;101369.19;5058755;28;45240;-52
2021/08/18 03:16:04;;;;;;;;;5.00;4.00;;;;;20.13;57.59;101374.59;5087861;27;47352;-51
2021/08/18 03:18:31;;;;;;;;;4.00;4.00;;;;;20.11;57.50;101380.06;5056851;28;45260;-52
2021/08/18 03:20:57;;;;;;;;;4.50;4.50;;;;;20.09;58.00;101381.09;5058261;28;45471;-53
2021/08/18 03:23:23;;;;;;;;;4.00;3.00;;;;;20.08;57.33;101382.03;5058169;28;45299;-50
2021/08/18 03:25:49;;;;;;;;;4.33;3.33;;;;;20.04;57.63;101367.84;5058315;28;48087;-54
2021/08/18 03:28:15;;;;;;;;;4.50;3.50;;;;;20.03;57.88;101366.09;5056427;28;45398;-51
2021/08/18 03:30:41;;;;;;;;;4.33;4.33;;;;;20.05;57.56;101360.63;5057873;28;45708;-50
2021/08/18 03:33:06;;;;;;;;;4.00;4.00;;;;;20.07;57.55;101372.19;5058230;28;45396;-49
2021/08/18 03:35:32;;;;;;;;;5.33;4.00;;;;;20.06;57.46;101367.75;5058909;28;47548;-52
2021/08/18 03:37:58;;;;;;;;;4.33;4.33;;;;;20.04;57.64;101369.66;5057853;28;45507;-50
2021/08/18 03:40:23;;;;;;;;;4.33;4.33;;;;;20.02;58.15;101364.34;5060349;28;45703;-51
2021/08/18 03:42:49;;;;;;;;;3.67;3.67;;;;;20.01;58.06;101367.13;5059436;28;45628;-50
2021/08/18 03:45:14;;;;;;;;;4.00;4.00;;;;;20.02;57.60;101366.19;5053065;28;46790;-51
2021/08/18 03:47:40;;;;;;;;;3.00;3.00;;;;;20.04;57.66;101362.44;5055543;28;45444;-47
2021/08/18 03:50:07;;;;;;;;;7.00;5.00;;;;;20.04;57.87;101364.28;5058258;28;45907;-51
2021/08/18 03:52:32;;;;;;;;;3.33;3.33;;;;;20.02;57.63;101364.34;5059818;28;45988;-49
2021/08/18 03:54:58;;;;;;;;;5.33;4.00;;;;;20.01;58.15;101367.13;5078857;27;48154;-51
2021/08/18 03:57:24;;;;;;;;;3.67;3.67;;;;;19.99;57.78;101362.69;5064582;28;45816;-52
2021/08/18 03:59:49;;;;;;;;;3.00;3.00;;;;;20.01;57.85;101357.22;5058100;28;45857;-51
2021/08/18 04:02:15;;;;;;;;;5.33;4.00;;;;;20.01;57.73;101361.75;5059398;28;45691;-51
2021/08/18 04:04:40;;;;;;;;;4.00;4.00;;;;;20.01;57.69;101359.91;5061275;27;45653;-50
2021/08/18 04:07:06;;;;;;;;;7.00;4.33;;;;;20.02;58.22;101363.47;5061462;28;45485;-51
2021/08/18 04:09:31;;;;;;;;;6.00;6.00;;;;;20.01;57.98;101356.34;5061657;28;45416;-46
2021/08/18 04:11:56;;;;;;;;;4.67;4.67;;;;;20.02;57.99;101368.88;5061913;28;45349;-47
2021/08/18 04:14:22;;;;;;;;;6.00;6.00;;;;;20.03;57.99;101365.22;5058267;28;48133;-48
2021/08/18 04:16:47;;;;;;;;;6.33;5.00;;;;;20.03;57.81;101366.09;5056040;28;45467;-46
2021/08/18 04:19:13;;;;;;;;;5.00;5.00;;;;;20.02;58.42;101366.19;5057682;28;45262;-50
2021/08/18 04:21:38;;;;;;;;;4.00;4.00;;;;;20.03;58.68;101365.22;5061512;28;45427;-51
2021/08/18 04:24:04;;;;;;;;;6.33;6.33;;;;;20.02;58.11;101361.66;5060391;28;45986;-50
2021/08/18 04:26:29;;;;;;;;;5.33;4.67;;;;;20.02;58.49;101358.09;5060972;28;45695;-50
2021/08/18 04:28:56;;;;;;;;;3.67;3.67;;;;;20.04;58.55;101362.44;5057102;28;45272;-50
2021/08/18 04:31:22;;;;;;;;;5.00;5.00;;;;;20.03;58.43;101368.78;5050339;28;45618;-50
2021/08/18 04:33:48;;;;;;;;;4.00;4.00;;;;;20.02;58.36;101371.56;5055806;28;47264;-49
2021/08/18 04:36:13;;;;;;;;;5.33;5.33;;;;;20.01;58.35;101368.00;5072882;27;45437;-49
2021/08/18 04:38:38;;;;;;;;;4.00;3.00;;;;;20.01;58.19;101361.75;5058750;28;45456;-50
2021/08/18 04:41:04;;;;;;;;;6.00;6.00;;;;;19.99;58.73;101362.69;5053249;28;45271;-50
2021/08/18 04:43:29;;;;;;;;;5.00;3.33;;;;;20.01;58.58;101364.44;5059111;28;47186;-50
2021/08/18 04:45:55;;;;;;;;;6.33;6.00;;;;;19.98;58.56;101355.56;5058367;28;45404;-51
2021/08/18 04:48:20;;;;;;;;;4.00;4.00;;;;;19.98;58.45;101362.78;5058496;28;45564;-50
2021/08/18 04:50:46;;;;;;;;;8.33;5.67;;;;;19.99;58.30;101368.06;5055932;28;45544;-50
2021/08/18 04:53:12;;;;;;;;;7.00;6.00;;;;;20.00;58.28;101368.94;5059988;28;46205;-51
2021/08/18 04:55:39;;;;;;;;;6.33;6.33;;;;;20.01;58.42;101367.13;5060193;28;45546;-49
2021/08/18 04:58:05;;;;;;;;;4.67;4.67;;;;;20.01;58.37;101365.31;5060502;28;45548;-52
2021/08/18 05:00:31;;;;;;;;;5.00;5.00;;;;;20.02;58.13;101361.66;5054214;28;45620;-52
2021/08/18 05:02:56;;;;;;;;;5.33;5.33;;;;;20.01;58.57;101365.31;5054062;28;46875;-51
2021/08/18 05:05:22;;;;;;;;;3.67;3.00;;;;;20.02;58.15;101369.75;5057189;28;45994;-50
2021/08/18 05:07:47;;;;;;;;;5.00;5.00;;;;;20.00;58.28;101363.56;5057123;27;45429;-51
2021/08/18 05:10:13;;;;;;;;;7.00;7.00;;;;;20.01;58.55;101369.81;5059597;28;45344;-50
2021/08/18 05:12:39;;;;;;;;;7.00;6.00;;;;;20.00;58.63;101368.94;5052036;28;46706;-53
2021/08/18 05:15:06;;;;;;;;;4.67;4.67;;;;;20.01;58.19;101364.44;5058365;28;45422;-51
2021/08/18 05:17:31;;;;;;;;;6.00;6.00;;;;;20.02;58.35;101368.88;5058523;28;45377;-51
2021/08/18 05:19:57;;;;;;;;;4.00;4.00;;;;;20.02;58.26;101368.88;5058677;28;45350;-49
2021/08/18 05:22:22;;;;;;;;;6.00;6.00;;;;;20.03;58.56;101368.78;5059960;28;46212;-49
2021/08/18 05:24:48;;;;;;;;;3.00;3.00;;;;;20.02;58.33;101361.66;5059019;28;45521;-51
2021/08/18 05:27:13;;;;;;;;;4.67;4.33;;;;;20.02;58.75;101369.75;5060006;28;45409;-52
2021/08/18 05:29:39;;;;;;;;;5.00;4.00;;;;;20.02;58.56;101369.75;5055291;28;45622;-50
2021/08/18 05:32:05;;;;;;;;;6.00;5.00;;;;;20.00;58.60;101366.25;5060359;28;47446;-52
2021/08/18 05:34:30;;;;;;;;;5.00;4.00;;;;;20.01;58.89;101370.69;5060959;28;45337;-51
2021/08/18 05:36:56;;;;;;;;;5.67;5.67;;;;;20.03;58.91;101370.59;5060114;28;45416;-52
2021/08/18 05:39:22;;;;;;;;;3.00;3.00;;;;;20.02;58.40;101375.13;5060458;28;45320;-50
2021/08/18 05:41:47;;;;;;;;;6.00;5.00;;;;;20.00;58.90;101371.66;5060403;28;45735;-49
2021/08/18 05:44:13;;;;;;;;;4.33;4.33;;;;;20.01;58.57;101373.38;5060403;28;45423;-52
2021/08/18 05:46:38;;;;;;;;;6.00;6.00;;;;;20.03;58.83;101379.56;5055533;28;45397;-51
2021/08/18 05:49:04;;;;;;;;;7.00;6.33;;;;;20.03;59.01;101382.25;5055598;28;45452;-52
2021/08/18 05:51:29;;;;;;;;;6.00;6.00;;;;;20.04;58.64;101383.13;5059167;28;45516;-51
2021/08/18 05:53:55;;;;;;;;;6.67;5.33;;;;;20.06;58.88;101378.53;5056228;28;45429;-52
2021/08/18 05:56:20;;;;;;;;;5.33;5.33;;;;;20.06;58.75;101384.78;5057565;28;45440;-52
2021/08/18 05:58:46;;;;;;;;;5.00;5.00;;;;;20.06;58.97;101382.09;5058195;28;45385;-51
2021/08/18 06:01:11;;;;;;;;;7.00;6.00;;;;;20.07;58.85;101380.28;5053624;28;47023;-53
2021/08/18 06:03:37;;;;;;;;;6.33;6.33;;;;;20.09;58.93;101381.97;5058541;28;45779;-51
2021/08/18 06:06:03;;;;;;;;;7.00;6.33;;;;;20.11;58.95;101385.44;5058168;28;45568;-52
2021/08/18 06:08:29;;;;;;;;;5.67;5.67;;;;;20.13;58.65;101380.84;5059339;28;45297;-52
2021/08/18 06:10:54;;;;;;;;;6.00;6.00;;;;;20.14;58.90;101385.28;5058484;28;47360;-51
2021/08/18 06:13:21;;;;;;;;;6.67;6.67;;;;;20.18;58.31;101388.69;5059242;28;45782;-51
2021/08/18 06:15:46;;;;;;;;;6.00;6.00;;;;;20.18;58.90;101386.88;5057716;28;45402;-49
2021/08/18 06:18:12;;;;;;;;;6.00;6.00;;;;;20.18;58.71;101388.69;5058724;27;45630;-51
2021/08/18 06:20:37;;;;;;;;;7.00;6.67;;;;;20.17;58.78;101393.22;5051631;28;46357;-50
2021/08/18 06:23:03;;;;;;;;;5.00;5.00;;;;;20.20;58.52;101397.56;5056395;28;45732;-52
2021/08/18 06:25:28;;;;;;;;;8.00;6.33;;;;;20.20;58.48;101393.06;5058940;28;45509;-52
2021/08/18 06:27:54;;;;;;;;;7.33;6.33;;;;;20.22;58.84;101396.56;5061554;28;45322;-51
2021/08/18 06:30:20;;;;;;;;;7.33;6.33;;;;;20.22;58.87;101401.94;5058529;28;48425;-51
2021/08/18 06:32:45;;;;;;;;;4.00;4.00;;;;;20.23;58.56;101394.72;5058324;28;45989;-50
2021/08/18 06:35:11;;;;;;;;;4.67;4.67;;;;;20.24;58.48;101402.75;5057374;28;45858;-50
2021/08/18 06:37:36;;;;;;;;;5.00;4.33;;;;;20.26;58.37;101394.56;5055243;28;45453;-50
2021/08/18 06:40:03;;;;;;;;;5.33;5.33;;;;;20.26;58.67;101400.84;5057781;28;48078;-50
2021/08/18 06:42:29;;;;;;;;;3.67;3.67;;;;;20.28;58.80;101401.63;5056634;28;45817;-52
2021/08/18 06:44:55;;;;;;;;;7.00;5.33;;;;;20.31;58.33;101403.28;5071386;27;45565;-50
2021/08/18 06:47:20;;;;;;;;;7.67;7.67;;;;;20.32;58.17;101399.63;5056736;28;45472;-52
2021/08/18 06:49:46;;;;;;;;;6.67;6.33;;;;;20.33;58.19;101400.50;5057585;28;47780;-52
2021/08/18 06:52:11;;;;;;;;;5.00;5.00;;;;;20.33;58.59;101411.28;5056862;28;45467;-53
2021/08/18 06:54:37;;;;;;;;;7.67;6.67;;;;;20.36;58.60;101400.38;5053567;28;45690;-51
2021/08/18 06:57:03;;;;;;;;;5.33;5.33;;;;;20.37;58.65;101405.69;5057253;28;45386;-51
2021/08/18 06:59:29;;;;;;;;;8.00;7.00;;;;;20.40;58.12;101405.50;5056359;28;45751;-50
2021/08/18 07:01:55;;;;;;;;;6.67;6.67;;;;;20.41;58.06;101406.38;5057713;28;45397;-53
2021/08/18 07:04:20;;;;;;;;;5.67;5.67;;;;;20.42;57.93;101402.75;5058523;28;45401;-49
2021/08/18 07:06:46;;;;;;;;;7.00;7.00;;;;;20.42;58.12;101406.34;5057968;28;45638;-51
2021/08/18 07:09:11;;;;;;;;;8.00;6.33;;;;;20.44;58.14;101409.81;5057339;27;47487;-52
2021/08/18 07:11:37;;;;;;;;;5.33;5.33;;;;;20.46;58.44;101398.97;5057176;27;45438;-50
2021/08/18 07:14:04;;;;;;;;;6.00;6.00;;;;;20.48;58.00;101410.56;5057954;28;45294;-50
2021/08/18 07:16:35;;;;;;;;;5.67;5.67;;;;;20.50;58.03;101408.66;5058823;28;45247;-53
2021/08/18 07:19:01;;;;;;;;;6.00;5.00;;;;;20.50;57.85;101401.44;5048271;28;47365;-53
2021/08/18 07:21:27;;;;;;;;;9.67;9.67;;;;;20.53;58.59;101401.25;5056588;28;45517;-50
2021/08/18 07:23:54;;;;;;;;;6.00;6.00;;;;;20.56;57.95;101394.81;5055972;28;45565;-53
2021/08/18 07:26:27;;;;;;;;;5.67;5.67;;;;;20.59;58.40;101393.81;5050494;28;45991;-52
2021/08/18 07:28:54;;;;;;;;;5.33;5.33;;;;;20.61;58.23;101394.59;5054338;28;46197;-53
2021/08/18 07:31:20;;;;;;;;;6.00;6.00;;;;;20.63;58.07;101396.25;5051297;27;45982;-52
2021/08/18 07:33:45;;;;;;;;;7.33;5.67;;;;;20.67;58.15;101397.84;5058235;28;45323;-54
2021/08/18 07:36:11;;;;;;;;;8.25;7.25;;;;;20.72;57.76;101382.28;5061176;28;45270;-53
2021/08/18 07:38:37;;;;;;;;;6.25;5.25;;;;;20.78;58.03;101386.47;5060943;28;47153;-52
2021/08/18 07:41:02;;;;;;;;;4.67;4.67;;;;;20.82;57.95;101385.34;5060096;28;45385;-51
2021/08/18 07:43:28;;;;;;;;;6.67;6.00;;;;;20.84;57.58;101387.03;5056380;28;45346;-51
2021/08/18 07:45:53;;;;;;;;;5.67;5.67;;;;;20.86;57.33;101393.22;5055451;28;45346;-50
2021/08/18 07:48:19;;;;;;;;;5.33;4.67;;;;;20.92;57.59;101391.13;5059273;28;47136;-49
2021/08/18 07:50:45;;;;;;;;;6.00;6.00;;;;;20.95;57.24;101391.81;5059693;28;45360;-49
2021/08/18 07:53:10;;;;;;;;;7.00;5.67;;;;;20.99;57.25;101387.16;5061306;27;45505;-50
2021/08/18 07:55:36;;;;;;;;;5.00;5.00;;;;;21.03;57.26;101394.13;5062109;28;45343;-52
2021/08/18 07:58:01;;;;;;;;;4.33;4.00;;;;;21.03;57.73;101389.59;5066464;28;48308;-51
2021/08/18 08:00:27;;;;;;;;;6.00;5.00;;;;;21.04;57.43;101390.47;5059430;27;45427;-51
2021/08/18 08:02:52;;;;;;;;;7.00;7.00;;;;;21.04;57.43;101390.47;5060244;28;45621;-53
2021/08/18 08:05:17;;;;;;;;;5.00;5.00;;;;;21.03;57.56;101397.69;5062298;28;45301;-48
2021/08/18 08:07:44;;;;;;;;;5.00;5.00;;;;;21.05;57.47;101401.19;5076757;27;46549;-51
2021/08/18 08:10:11;;;;;;;;;4.33;3.00;;;;;21.08;57.50;101395.59;5051330;28;46033;-50
2021/08/18 08:12:38;;;;;;;;;5.67;5.67;;;;;21.13;57.00;101398.94;5055325;28;45434;-49
2021/08/18 08:15:05;;;;;;;;;5.00;5.00;;;;;21.16;57.29;101397.88;5060360;27;45513;-51
2021/08/18 08:17:30;;;;;;;;;7.00;5.00;;;;;21.20;56.97;101393.19;5053985;28;47187;-52
2021/08/18 08:19:56;;;;;;;;;6.00;6.00;;;;;21.25;57.07;101392.03;5050356;28;45604;-51
2021/08/18 08:22:22;;;;;;;;;4.33;4.00;;;;;21.30;56.52;101387.22;5056361;28;45421;-51
2021/08/18 08:24:47;;;;;;;;;6.33;6.33;;;;;21.29;56.71;101388.19;5060143;28;45298;-48
2021/08/18 08:27:13;;;;;;;;;5.67;4.67;;;;;21.27;56.93;101394.63;5060055;28;47470;-49
2021/08/18 08:29:39;;;;;;;;;5.00;5.00;;;;;21.28;56.84;101396.38;5060400;28;45405;-51
2021/08/18 08:32:05;;;;;;;;;6.33;6.33;;;;;21.29;57.17;101403.53;5059916;28;45323;-50
2021/08/18 08:34:30;;;;;;;;;10.00;9.00;;;;;21.33;56.86;101397.84;5059289;28;45538;-51
2021/08/18 08:36:56;;;;;;;;;4.67;4.67;;;;;21.37;56.95;101395.88;5057590;28;47160;-51
2021/08/18 08:39:21;;;;;;;;;5.00;5.00;;;;;21.40;56.54;101391.16;5058524;28;46596;-50
2021/08/18 08:41:48;;;;;;;;;7.00;7.00;;;;;21.43;56.62;101396.38;5053843;28;45343;-51
2021/08/18 08:44:22;;;;;;;;;6.33;6.33;;;;;21.48;56.34;101397.97;5054174;28;45572;-51
2021/08/18 08:46:49;;;;;;;;;6.67;6.67;;;;;21.46;56.66;101398.03;5058164;28;47876;-50
2021/08/18 08:49:21;;;;;;;;;4.00;4.00;;;;;21.44;56.70;101405.34;5048400;28;45502;-51
2021/08/18 08:51:49;;;;;;;;;5.33;5.33;;;;;21.40;56.09;101401.09;5058307;28;45502;-53
2021/08/18 08:54:16;;;;;;;;;7.00;6.00;;;;;21.37;55.87;101410.25;5058840;28;45610;-52
2021/08/18 08:56:43;;;;;;;;;5.67;5.00;;;;;21.33;56.29;101405.94;5059837;28;45468;-49
2021/08/18 08:59:08;;;;;;;;;5.00;5.00;;;;;21.34;56.55;101409.53;5059735;28;45710;-51
2021/08/18 09:01:56;;;;;;;;;6.33;6.00;;;;;21.37;56.77;101403.97;5059714;27;45307;-51
2021/08/18 09:04:31;;;;;;;;;6.00;6.00;;;;;21.43;56.79;101409.88;5058132;28;45492;-51
2021/08/18 09:07:16;;;;;;;;;7.00;7.00;;;;;21.57;56.20;101410.94;5058580;28;46917;-53
2021/08/18 09:10:13;;;;;;;;;6.33;5.00;;;;;21.68;56.23;101400.41;5038565;28;45666;-48
2021/08/18 09:12:39;;;;;;;;;6.67;5.67;;;;;21.74;56.14;101402.78;5049411;28;45381;-48
2021/08/18 09:15:23;;;;;;;;;4.00;4.00;;;;;21.80;55.86;101407.81;5058883;28;45380;-47
2021/08/18 09:17:50;;;;;;;;;5.00;5.00;;;;;21.86;55.92;101404.75;5055718;28;47345;-49
2021/08/18 09:20:19;;;;;;;;;6.00;6.00;;;;;21.92;55.74;101419.75;5059861;28;45298;-52
2021/08/18 09:22:50;;;;;;;;;5.00;4.33;;;;;21.95;55.39;101401.50;5059834;28;45406;-49
2021/08/18 09:25:24;;;;;;;;;6.00;5.00;;;;;22.00;55.00;101402.13;5058711;28;45483;-46
2021/08/18 09:27:53;;;;;;;;;5.00;5.00;;;;;22.07;55.28;101399.09;5061248;28;48310;-51
2021/08/18 09:30:22;;;;;;;;;6.33;6.33;;;;;22.13;55.13;101399.59;5060603;28;45619;-52
2021/08/18 09:32:48;;;;;;;;;8.00;6.00;;;;;22.18;55.01;101396.63;5052085;28;45263;-52
2021/08/18 09:35:17;;;;;;;;;7.00;7.00;;;;;22.24;54.64;101388.16;5060088;28;45651;-48
2021/08/18 09:37:53;;;;;;;;;4.67;4.67;;;;;22.26;54.59;101397.06;5057629;28;47965;-51
2021/08/18 09:40:21;;;;;;;;;5.33;5.00;;;;;22.30;54.63;101393.19;5055176;28;46232;-50
2021/08/18 09:42:47;;;;;;;;;4.00;4.00;;;;;22.32;54.64;101389.41;5057393;28;45588;-49
2021/08/18 09:45:31;;;;;;;;;7.33;6.33;;;;;22.27;53.83;101391.53;5056511;28;45444;-50
2021/08/18 09:48:06;;;;;;;;;6.00;5.00;;;;;22.23;54.25;101398.09;5056242;28;46920;-53
2021/08/18 09:50:40;;;;;;;;;5.00;5.00;;;;;22.24;54.18;101393.56;5058949;28;45281;-52
2021/08/18 09:53:13;;;;;;;;;4.00;4.00;;;;;22.30;54.14;101387.78;5059191;28;45329;-52
2021/08/18 09:55:47;;;;;;;;;4.00;4.00;;;;;22.36;54.29;101386.53;5055627;28;45475;-48
2021/08/18 09:58:22;;;;;;;;;5.00;4.67;;;;;22.34;54.27;101392.03;5050323;28;47915;-50
2021/08/18 10:00:48;;;;;;;;;4.00;3.00;;;;;22.36;54.00;101391.94;5053692;28;45829;-53
2021/08/18 10:03:14;;;;;;;;;3.33;3.33;;;;;22.40;53.66;101396.22;5059678;28;45432;-51
2021/08/18 10:05:40;;;;;;;;;3.00;3.00;;;;;22.45;54.19;101396.81;5060045;28;45368;-51
2021/08/18 10:08:08;;;;;;;;;4.67;4.67;;;;;22.52;54.23;101399.06;5058800;28;46166;-52
2021/08/18 10:10:37;;;;;;;;;3.00;3.00;;;;;22.58;53.93;101398.66;5050991;28;45508;-53
2021/08/18 10:13:02;;;;;;;;;4.67;4.00;;;;;22.65;53.82;101392.91;5056006;28;45491;-53
2021/08/18 10:15:28;;;;;;;;;4.00;4.00;;;;;22.69;53.62;101398.00;5063386;27;45416;-53
2021/08/18 10:17:54;;;;;;;;;2.00;2.00;;;;;22.75;53.75;101402.19;5054567;28;47348;-52
2021/08/18 10:20:22;;;;;;;;;1.00;1.00;;;;;22.78;53.42;101389.34;5056922;28;45359;-54
2021/08/18 10:23:02;;;;;;;;;3.00;3.00;;;;;22.84;53.26;101391.69;5088921;27;45934;-53
2021/08/18 10:25:45;;;;;;;;;2.00;2.00;;;;;22.89;52.68;101395.00;5057655;28;45408;-51
2021/08/18 10:28:11;;;;;;;;;2.67;2.67;;;;;22.93;52.84;101392.94;5066149;27;47471;-52
2021/08/18 10:30:53;;;;;;;;;2.00;2.00;;;;;22.99;52.90;101387.13;5061502;28;45458;-51
2021/08/18 10:33:53;;;;;;;;;2.00;2.00;;;;;23.05;52.37;101386.75;5058166;28;45366;-52
2021/08/18 10:36:40;;;;;;;;;3.00;3.00;;;;;23.14;52.00;101383.47;5056404;28;45811;-48
2021/08/18 10:39:18;;;;;;;;;1.67;1.67;;;;;23.20;51.98;101383.06;5058228;28;47290;-52
2021/08/18 10:41:58;;;;;;;;;2.33;2.33;;;;;23.24;51.60;101377.47;5055494;28;45789;-51
2021/08/18 10:44:37;;;;;;;;;2.00;2.00;;;;;23.30;51.88;101371.66;5055495;28;45342;-51
2021/08/18 10:47:27;;;;;;;;;3.33;3.33;;;;;23.38;51.47;101367.50;5057452;28;45636;-52
2021/08/18 10:49:57;;;;;;;;;4.00;4.00;;;;;23.49;51.87;101370.34;5058219;28;45377;-51
2021/08/18 10:52:28;;;;;;;;;3.67;3.00;;;;;23.59;51.62;101365.25;5057101;28;46155;-47
2021/08/18 10:55:09;;;;;;;;;4.33;3.33;;;;;23.65;51.26;101366.69;5058340;28;45588;-52
2021/08/18 10:57:36;;;;;;;;;3.00;3.00;;;;;23.70;51.39;101359.97;5066530;27;45679;-51
2021/08/18 11:00:33;;;;;;;;;3.00;3.00;;;;;23.78;51.24;101367.63;5057835;28;47330;-51
2021/08/18 11:03:01;;;;;;;;;5.00;5.00;;;;;23.83;50.75;101364.59;5057730;28;45628;-49
2021/08/18 11:05:41;;;;;;;;;5.00;4.67;;;;;23.84;51.14;101350.94;5047243;28;45961;-51
2021/08/18 11:08:07;;;;;;;;;4.00;4.00;;;;;23.89;50.76;101358.78;5058419;28;45485;-48
2021/08/18 11:10:36;;;;;;;;;6.33;5.00;;;;;23.93;50.50;101357.59;5058234;28;48830;-50
2021/08/18 11:13:03;;;;;;;;;9.00;7.00;;;;;24.00;50.66;101354.34;5053025;28;45381;-53
2021/08/18 11:15:28;;;;;;;;;6.67;6.00;;;;;24.03;50.04;101348.72;5061309;27;45405;-48
2021/08/18 11:17:56;;;;;;;;;7.50;7.50;;;;;24.05;50.51;101345.91;5058795;27;45523;-50
2021/08/18 11:20:28;;;;;;;;;8.50;7.75;;;;;24.04;50.09;101345.03;5061440;28;47332;-48
2021/08/18 11:22:55;;;;;;;;;11.00;6.33;;;;;23.96;50.34;101347.41;5061038;27;45732;-52
2021/08/18 11:25:21;;;;;;;;;7.75;6.00;;;;;23.95;49.84;101347.50;5057587;28;45400;-51